sensor_id;sensor_type;location;lat;lon;timestamp;pressure;altitude;pressure_sealevel;temperature;humidity
68075;BME280;54864;52.002;5.468;2023-06-22T00:00:35;101767.50;;;21.29;65.13
68075;BME280;54864;52.002;5.468;2023-06-22T00:01:36;101764.63;;;21.19;64.93
68075;BME280;54864;52.002;5.468;2023-06-22T00:02:37;101764.94;;;21.27;65.49
68075;BME280;54864;52.002;5.468;2023-06-22T00:03:39;101768.13;;;21.32;65.12
68075;BME280;54864;52.002;5.468;2023-06-22T00:04:39;101763.50;;;21.34;65.14
68075;BME280;54864;52.002;5.468;2023-06-22T00:05:41;101765.31;;;21.34;64.88
68075;BME280;54864;52.002;5.468;2023-06-22T00:06:42;101768.00;;;21.34;64.96
68075;BME280;54864;52.002;5.468;2023-06-22T00:07:50;101773.25;;;21.35;64.79
68075;BME280;54864;52.002;5.468;2023-06-22T00:08:51;101769.84;;;21.33;65.34
68075;BME280;54864;52.002;5.468;2023-06-22T00:09:53;101766.41;;;21.31;65.43
68075;BME280;54864;52.002;5.468;2023-06-22T00:10:53;101763.97;;;21.28;65.54
68075;BME280;54864;52.002;5.468;2023-06-22T00:11:55;101773.31;;;21.23;65.42
68075;BME280;54864;52.002;5.468;2023-06-22T00:12:56;101759.59;;;21.14;65.65
68075;BME280;54864;52.002;5.468;2023-06-22T00:13:59;101763.53;;;21.21;65.30
68075;BME280;54864;52.002;5.468;2023-06-22T00:15:00;101762.69;;;21.21;65.11
68075;BME280;54864;52.002;5.468;2023-06-22T00:16:02;101759.38;;;21.17;65.69
68075;BME280;54864;52.002;5.468;2023-06-22T00:17:04;101754.94;;;21.05;65.39
68075;BME280;54864;52.002;5.468;2023-06-22T00:18:06;101754.56;;;21.10;66.20
68075;BME280;54864;52.002;5.468;2023-06-22T00:19:08;101748.38;;;21.09;66.33
68075;BME280;54864;52.002;5.468;2023-06-22T00:20:12;101753.63;;;21.11;66.37
68075;BME280;54864;52.002;5.468;2023-06-22T00:21:14;101753.63;;;21.11;66.14
68075;BME280;54864;52.002;5.468;2023-06-22T00:22:15;101751.03;;;21.09;66.00
68075;BME280;54864;52.002;5.468;2023-06-22T00:23:17;101750.53;;;21.04;65.96
68075;BME280;54864;52.002;5.468;2023-06-22T00:24:18;101760.53;;;21.02;65.72
68075;BME280;54864;52.002;5.468;2023-06-22T00:25:20;101754.41;;;21.00;65.99
68075;BME280;54864;52.002;5.468;2023-06-22T00:26:21;101757.78;;;20.91;66.59
68075;BME280;54864;52.002;5.468;2023-06-22T00:27:23;101752.31;;;20.93;67.00
68075;BME280;54864;52.002;5.468;2023-06-22T00:28:23;101752.31;;;20.93;66.64
68075;BME280;54864;52.002;5.468;2023-06-22T00:29:26;101755.44;;;20.86;66.50
68075;BME280;54864;52.002;5.468;2023-06-22T00:30:27;101754.47;;;20.87;67.10
68075;BME280;54864;52.002;5.468;2023-06-22T00:31:29;101748.69;;;20.81;66.15
68075;BME280;54864;52.002;5.468;2023-06-22T00:32:31;101756.81;;;20.79;66.52
68075;BME280;54864;52.002;5.468;2023-06-22T00:33:31;101747.06;;;20.78;66.73
68075;BME280;54864;52.002;5.468;2023-06-22T00:34:33;101745.81;;;20.71;66.95
68075;BME280;54864;52.002;5.468;2023-06-22T00:35:34;101747.81;;;20.80;67.40
68075;BME280;54864;52.002;5.468;2023-06-22T00:36:36;101750.50;;;20.80;67.13
68075;BME280;54864;52.002;5.468;2023-06-22T00:37:37;101749.56;;;20.81;66.64
68075;BME280;54864;52.002;5.468;2023-06-22T00:38:41;101750.41;;;20.82;66.80
68075;BME280;54864;52.002;5.468;2023-06-22T00:39:43;101754.47;;;20.75;66.85
68075;BME280;54864;52.002;5.468;2023-06-22T00:40:54;101750.19;;;20.72;66.90
68075;BME280;54864;52.002;5.468;2023-06-22T00:41:55;101742.38;;;20.69;67.42
68075;BME280;54864;52.002;5.468;2023-06-22T00:42:56;101746.03;;;20.68;67.25
68075;BME280;54864;52.002;5.468;2023-06-22T00:43:58;101745.06;;;20.69;67.11
68075;BME280;54864;52.002;5.468;2023-06-22T00:45:00;101749.56;;;20.69;67.73
68075;BME280;54864;52.002;5.468;2023-06-22T00:46:02;101741.00;;;20.64;67.69
68075;BME280;54864;52.002;5.468;2023-06-22T00:47:03;101741.75;;;20.66;67.20
68075;BME280;54864;52.002;5.468;2023-06-22T00:48:07;101742.66;;;20.53;67.13
68075;BME280;54864;52.002;5.468;2023-06-22T00:49:09;101747.03;;;20.54;67.33
68075;BME280;54864;52.002;5.468;2023-06-22T00:50:13;101738.16;;;20.54;67.51
68075;BME280;54864;52.002;5.468;2023-06-22T00:51:18;101742.25;;;20.47;67.91
68075;BME280;54864;52.002;5.468;2023-06-22T00:52:24;101746.09;;;20.43;67.81
68075;BME280;54864;52.002;5.468;2023-06-22T00:53:29;101743.44;;;20.43;68.25
68075;BME280;54864;52.002;5.468;2023-06-22T00:54:35;101753.28;;;20.42;69.07
68075;BME280;54864;52.002;5.468;2023-06-22T00:55:37;101746.84;;;20.45;68.75
68075;BME280;54864;52.002;5.468;2023-06-22T00:56:40;101749.53;;;20.45;68.85
68075;BME280;54864;52.002;5.468;2023-06-22T00:57:41;101757.56;;;20.45;68.88
68075;BME280;54864;52.002;5.468;2023-06-22T00:58:55;101753.91;;;20.46;68.39
68075;BME280;54864;52.002;5.468;2023-06-22T00:59:57;101752.22;;;20.45;68.79
68075;BME280;54864;52.002;5.468;2023-06-22T01:01:00;101745.13;;;20.44;68.94
68075;BME280;54864;52.002;5.468;2023-06-22T01:02:03;101752.22;;;20.45;68.76
68075;BME280;54864;52.002;5.468;2023-06-22T01:03:04;101756.06;;;20.41;68.59
68075;BME280;54864;52.002;5.468;2023-06-22T01:04:09;101755.41;;;20.37;68.89
68075;BME280;54864;52.002;5.468;2023-06-22T01:05:10;101754.53;;;20.37;68.84
68075;BME280;54864;52.002;5.468;2023-06-22T01:06:18;101756.59;;;20.33;68.68
68075;BME280;54864;52.002;5.468;2023-06-22T01:07:23;101758.09;;;20.24;69.24
68075;BME280;54864;52.002;5.468;2023-06-22T01:08:32;101752.00;;;20.22;68.83
68075;BME280;54864;52.002;5.468;2023-06-22T01:09:49;101748.47;;;20.22;69.23
68075;BME280;54864;52.002;5.468;2023-06-22T01:10:56;101755.13;;;20.16;69.48
68075;BME280;54864;52.002;5.468;2023-06-22T01:12:01;101750.69;;;20.15;69.95
68075;BME280;54864;52.002;5.468;2023-06-22T01:13:07;101752.72;;;20.12;69.72
68075;BME280;54864;52.002;5.468;2023-06-22T01:14:15;101748.22;;;20.12;69.63
68075;BME280;54864;52.002;5.468;2023-06-22T01:15:25;101740.66;;;20.19;69.60
68075;BME280;54864;52.002;5.468;2023-06-22T01:16:31;101739.13;;;20.15;69.74
68075;BME280;54864;52.002;5.468;2023-06-22T01:17:33;101738.19;;;20.16;69.42
68075;BME280;54864;52.002;5.468;2023-06-22T01:18:36;101737.31;;;20.15;70.31
68075;BME280;54864;52.002;5.468;2023-06-22T01:19:45;101739.22;;;20.13;69.67
68075;BME280;54864;52.002;5.468;2023-06-22T01:20:50;101739.13;;;20.02;70.16
68075;BME280;54864;52.002;5.468;2023-06-22T01:21:53;101743.84;;;19.99;70.51
68075;BME280;54864;52.002;5.468;2023-06-22T01:23:05;101737.31;;;20.03;70.44
68075;BME280;54864;52.002;5.468;2023-06-22T01:24:15;101745.88;;;20.08;70.49
68075;BME280;54864;52.002;5.468;2023-06-22T01:25:20;101743.94;;;20.10;70.27
68075;BME280;54864;52.002;5.468;2023-06-22T01:26:30;101745.44;;;20.01;70.44
68075;BME280;54864;52.002;5.468;2023-06-22T01:27:42;101742.22;;;20.09;70.63
68075;BME280;54864;52.002;5.468;2023-06-22T01:28:54;101741.91;;;20.13;70.40
68075;BME280;54864;52.002;5.468;2023-06-22T01:29:58;101743.72;;;20.13;69.98
68075;BME280;54864;52.002;5.468;2023-06-22T01:31:01;101748.13;;;20.14;69.92
68075;BME280;54864;52.002;5.468;2023-06-22T01:32:06;101746.31;;;20.14;69.68
68075;BME280;54864;52.002;5.468;2023-06-22T01:33:09;101742.75;;;20.14;69.71
68075;BME280;54864;52.002;5.468;2023-06-22T01:34:12;101741.16;;;20.11;70.07
68075;BME280;54864;52.002;5.468;2023-06-22T01:35:15;101743.72;;;20.13;70.08
68075;BME280;54864;52.002;5.468;2023-06-22T01:36:18;101739.97;;;20.15;70.01
68075;BME280;54864;52.002;5.468;2023-06-22T01:37:19;101735.50;;;20.16;69.84
68075;BME280;54864;52.002;5.468;2023-06-22T01:38:21;101734.72;;;20.14;70.06
68075;BME280;54864;52.002;5.468;2023-06-22T01:39:23;101740.09;;;20.14;70.15
68075;BME280;54864;52.002;5.468;2023-06-22T01:40:25;101739.78;;;20.06;69.94
68075;BME280;54864;52.002;5.468;2023-06-22T01:41:28;101744.16;;;20.07;70.02
68075;BME280;54864;52.002;5.468;2023-06-22T01:42:31;101732.38;;;20.09;69.42
68075;BME280;54864;52.002;5.468;2023-06-22T01:43:33;101739.78;;;20.06;69.93
68075;BME280;54864;52.002;5.468;2023-06-22T01:44:37;101732.81;;;20.03;70.06
68075;BME280;54864;52.002;5.468;2023-06-22T01:45:38;101739.66;;;20.07;70.49
68075;BME280;54864;52.002;5.468;2023-06-22T01:46:41;101739.56;;;20.09;69.83
68075;BME280;54864;52.002;5.468;2023-06-22T01:47:42;101727.03;;;20.09;70.03
68075;BME280;54864;52.002;5.468;2023-06-22T01:48:56;101732.50;;;20.08;69.82
68075;BME280;54864;52.002;5.468;2023-06-22T01:49:56;101727.47;;;20.03;69.95
68075;BME280;54864;52.002;5.468;2023-06-22T01:50:58;101728.44;;;20.02;70.30
68075;BME280;54864;52.002;5.468;2023-06-22T01:51:59;101725.22;;;19.97;70.35
68075;BME280;54864;52.002;5.468;2023-06-22T01:53:01;101735.28;;;20.06;70.48
68075;BME280;54864;52.002;5.468;2023-06-22T01:54:02;101739.56;;;20.09;70.08
68075;BME280;54864;52.002;5.468;2023-06-22T01:55:04;101738.16;;;20.03;70.05
68075;BME280;54864;52.002;5.468;2023-06-22T01:56:06;101735.50;;;20.03;69.65
68075;BME280;54864;52.002;5.468;2023-06-22T01:57:08;101730.34;;;20.00;70.23
68075;BME280;54864;52.002;5.468;2023-06-22T01:58:10;101728.66;;;19.99;70.32
68075;BME280;54864;52.002;5.468;2023-06-22T01:59:18;101723.41;;;19.98;70.52
68075;BME280;54864;52.002;5.468;2023-06-22T02:00:25;101728.44;;;20.02;70.28
68075;BME280;54864;52.002;5.468;2023-06-22T02:01:35;101736.25;;;20.05;70.07
68075;BME280;54864;52.002;5.468;2023-06-22T02:02:40;101735.28;;;20.06;69.76
68075;BME280;54864;52.002;5.468;2023-06-22T02:04:02;101730.13;;;20.03;70.08
68075;BME280;54864;52.002;5.468;2023-06-22T02:05:07;101726.59;;;20.03;69.87
68075;BME280;54864;52.002;5.468;2023-06-22T02:06:14;101726.41;;;19.93;70.24
68075;BME280;54864;52.002;5.468;2023-06-22T02:07:20;101730.47;;;19.99;70.00
68075;BME280;54864;52.002;5.468;2023-06-22T02:08:25;101726.59;;;20.03;70.33
68075;BME280;54864;52.002;5.468;2023-06-22T02:09:30;101726.06;;;19.98;70.54
68075;BME280;54864;52.002;5.468;2023-06-22T02:10:32;101719.44;;;20.03;70.48
68075;BME280;54864;52.002;5.468;2023-06-22T02:11:37;101734.41;;;20.06;70.09
68075;BME280;54864;52.002;5.468;2023-06-22T02:12:38;101727.13;;;20.08;70.22
68075;BME280;54864;52.002;5.468;2023-06-22T02:13:41;101725.53;;;20.05;70.05
68075;BME280;54864;52.002;5.468;2023-06-22T02:14:50;101725.84;;;20.01;70.17
68075;BME280;54864;52.002;5.468;2023-06-22T02:15:54;101724.38;;;19.97;70.19
68075;BME280;54864;52.002;5.468;2023-06-22T02:16:56;101726.41;;;19.93;70.41
68075;BME280;54864;52.002;5.468;2023-06-22T02:18:00;101722.75;;;19.94;70.33
68075;BME280;54864;52.002;5.468;2023-06-22T02:19:01;101722.22;;;19.89;70.49
68075;BME280;54864;52.002;5.468;2023-06-22T02:20:05;101718.81;;;19.87;70.53
68075;BME280;54864;52.002;5.468;2023-06-22T02:21:08;101719.66;;;19.87;70.60
68075;BME280;54864;52.002;5.468;2023-06-22T02:22:09;101718.47;;;19.91;70.43
68075;BME280;54864;52.002;5.468;2023-06-22T02:23:10;101719.44;;;19.90;70.52
68075;BME280;54864;52.002;5.468;2023-06-22T02:24:12;101721.25;;;19.90;70.63
68075;BME280;54864;52.002;5.468;2023-06-22T02:25:14;101715.16;;;19.88;70.44
68075;BME280;54864;52.002;5.468;2023-06-22T02:26:16;101722.97;;;19.91;69.98
68075;BME280;54864;52.002;5.468;2023-06-22T02:27:18;101722.22;;;19.89;70.22
68075;BME280;54864;52.002;5.468;2023-06-22T02:28:19;101725.75;;;19.89;70.19
68075;BME280;54864;52.002;5.468;2023-06-22T02:29:20;101720.94;;;19.82;70.19
68075;BME280;54864;52.002;5.468;2023-06-22T02:30:23;101720.31;;;19.78;70.50
68075;BME280;54864;52.002;5.468;2023-06-22T02:31:25;101721.25;;;19.77;70.56
68075;BME280;54864;52.002;5.468;2023-06-22T02:32:30;101726.94;;;19.73;70.81
68075;BME280;54864;52.002;5.468;2023-06-22T02:33:34;101721.69;;;19.71;70.94
68075;BME280;54864;52.002;5.468;2023-06-22T02:34:36;101718.81;;;19.74;70.91
68075;BME280;54864;52.002;5.468;2023-06-22T02:35:37;101711.84;;;19.72;71.23
68075;BME280;54864;52.002;5.468;2023-06-22T02:36:40;101719.75;;;19.73;71.03
68075;BME280;54864;52.002;5.468;2023-06-22T02:37:41;101720.09;;;19.69;71.25
68075;BME280;54864;52.002;5.468;2023-06-22T02:38:43;101723.50;;;19.71;70.94
68075;BME280;54864;52.002;5.468;2023-06-22T02:39:48;101725.22;;;19.72;71.10
68075;BME280;54864;52.002;5.468;2023-06-22T02:40:50;101718.91;;;19.73;71.38
68075;BME280;54864;52.002;5.468;2023-06-22T02:41:53;101720.09;;;19.69;70.85
68075;BME280;54864;52.002;5.468;2023-06-22T02:42:56;101718.25;;;19.69;71.12
68075;BME280;54864;52.002;5.468;2023-06-22T02:43:58;101719.13;;;19.70;71.50
68075;BME280;54864;52.002;5.468;2023-06-22T02:45:00;101723.41;;;19.72;71.43
68075;BME280;54864;52.002;5.468;2023-06-22T02:46:01;101721.47;;;19.74;71.28
68075;BME280;54864;52.002;5.468;2023-06-22T02:47:04;101725.88;;;19.75;71.42
68075;BME280;54864;52.002;5.468;2023-06-22T02:48:05;101717.94;;;19.61;71.52
68075;BME280;54864;52.002;5.468;2023-06-22T02:49:07;101718.16;;;19.71;71.44
68075;BME280;54864;52.002;5.468;2023-06-22T02:50:08;101717.84;;;19.62;71.42
68075;BME280;54864;52.002;5.468;2023-06-22T02:51:10;101712.47;;;19.62;71.31
68075;BME280;54864;52.002;5.468;2023-06-22T02:52:11;101713.34;;;19.63;71.45
68075;BME280;54864;52.002;5.468;2023-06-22T02:53:13;101714.41;;;19.60;71.13
68075;BME280;54864;52.002;5.468;2023-06-22T02:54:14;101709.16;;;19.59;71.45
68075;BME280;54864;52.002;5.468;2023-06-22T02:55:16;101713.66;;;19.58;71.17
68075;BME280;54864;52.002;5.468;2023-06-22T02:56:17;101718.16;;;19.58;71.41
68075;BME280;54864;52.002;5.468;2023-06-22T02:57:25;101709.72;;;19.50;71.38
68075;BME280;54864;52.002;5.468;2023-06-22T02:58:26;101705.25;;;19.50;71.60
68075;BME280;54864;52.002;5.468;2023-06-22T02:59:27;101719.69;;;19.48;71.80
68075;BME280;54864;52.002;5.468;2023-06-22T03:00:28;101709.66;;;19.51;71.64
68075;BME280;54864;52.002;5.468;2023-06-22T03:01:31;101714.19;;;19.37;72.11
68075;BME280;54864;52.002;5.468;2023-06-22T03:02:39;101714.84;;;19.40;71.62
68075;BME280;54864;52.002;5.468;2023-06-22T03:03:41;101721.25;;;19.38;71.99
68075;BME280;54864;52.002;5.468;2023-06-22T03:04:42;101719.88;;;19.32;71.92
68075;BME280;54864;52.002;5.468;2023-06-22T03:05:49;101718.16;;;19.31;72.32
68075;BME280;54864;52.002;5.468;2023-06-22T03:06:53;101715.59;;;19.29;72.70
68075;BME280;54864;52.002;5.468;2023-06-22T03:07:55;101716.34;;;19.31;72.34
68075;BME280;54864;52.002;5.468;2023-06-22T03:08:58;101721.88;;;19.28;72.20
68075;BME280;54864;52.002;5.468;2023-06-22T03:10:00;101722.09;;;19.25;72.36
68075;BME280;54864;52.002;5.468;2023-06-22T03:11:01;101713.31;;;19.23;72.50
68075;BME280;54864;52.002;5.468;2023-06-22T03:12:03;101713.53;;;19.20;72.49
68075;BME280;54864;52.002;5.468;2023-06-22T03:13:04;101715.25;;;19.21;72.64
68075;BME280;54864;52.002;5.468;2023-06-22T03:14:06;101715.25;;;19.21;72.53
68075;BME280;54864;52.002;5.468;2023-06-22T03:15:08;101716.09;;;19.22;72.28
68075;BME280;54864;52.002;5.468;2023-06-22T03:16:10;101711.06;;;19.17;72.59
68075;BME280;54864;52.002;5.468;2023-06-22T03:17:11;101710.97;;;19.19;72.71
68075;BME280;54864;52.002;5.468;2023-06-22T03:18:14;101712.56;;;19.21;72.44
68075;BME280;54864;52.002;5.468;2023-06-22T03:19:16;101710.97;;;19.19;72.20
68075;BME280;54864;52.002;5.468;2023-06-22T03:20:17;101711.56;;;19.10;72.67
68075;BME280;54864;52.002;5.468;2023-06-22T03:21:22;101709.66;;;19.12;72.88
68075;BME280;54864;52.002;5.468;2023-06-22T03:22:24;101705.59;;;19.06;72.91
68075;BME280;54864;52.002;5.468;2023-06-22T03:23:25;101699.28;;;19.07;72.88
68075;BME280;54864;52.002;5.468;2023-06-22T03:24:26;101693.19;;;19.05;72.93
68075;BME280;54864;52.002;5.468;2023-06-22T03:25:29;101680.66;;;19.06;73.26
68075;BME280;54864;52.002;5.468;2023-06-22T03:26:31;101677.03;;;19.07;72.99
68075;BME280;54864;52.002;5.468;2023-06-22T03:27:32;101681.19;;;18.98;73.51
68075;BME280;54864;52.002;5.468;2023-06-22T03:28:34;101677.34;;;19.02;73.09
68075;BME280;54864;52.002;5.468;2023-06-22T03:29:35;101675.09;;;18.96;73.28
68075;BME280;54864;52.002;5.468;2023-06-22T03:30:36;101681.69;;;18.90;73.52
68075;BME280;54864;52.002;5.468;2023-06-22T03:31:37;101680.94;;;18.88;73.85
68075;BME280;54864;52.002;5.468;2023-06-22T03:32:39;101675.88;;;18.84;74.12
68075;BME280;54864;52.002;5.468;2023-06-22T03:33:41;101679.13;;;18.89;73.78
68075;BME280;54864;52.002;5.468;2023-06-22T03:34:49;101683.03;;;18.83;74.01
68075;BME280;54864;52.002;5.468;2023-06-22T03:35:50;101680.88;;;18.76;74.56
68075;BME280;54864;52.002;5.468;2023-06-22T03:36:52;101678.41;;;18.73;74.82
68075;BME280;54864;52.002;5.468;2023-06-22T03:37:54;101678.94;;;18.78;74.82
68075;BME280;54864;52.002;5.468;2023-06-22T03:38:55;101682.69;;;18.75;75.10
68075;BME280;54864;52.002;5.468;2023-06-22T03:39:57;101680.00;;;18.75;75.01
68075;BME280;54864;52.002;5.468;2023-06-22T03:40:57;101682.56;;;18.77;75.03
68075;BME280;54864;52.002;5.468;2023-06-22T03:41:59;101680.66;;;18.79;74.89
68075;BME280;54864;52.002;5.468;2023-06-22T03:43:00;101679.06;;;18.76;74.99
68075;BME280;54864;52.002;5.468;2023-06-22T03:44:02;101676.38;;;18.76;75.18
68075;BME280;54864;52.002;5.468;2023-06-22T03:45:04;101687.81;;;18.78;75.23
68075;BME280;54864;52.002;5.468;2023-06-22T03:46:06;101680.47;;;18.82;75.06
68075;BME280;54864;52.002;5.468;2023-06-22T03:47:07;101670.72;;;18.81;75.21
68075;BME280;54864;52.002;5.468;2023-06-22T03:48:09;101672.09;;;18.74;75.73
68075;BME280;54864;52.002;5.468;2023-06-22T03:49:11;101681.25;;;18.69;75.59
68075;BME280;54864;52.002;5.468;2023-06-22T03:50:13;101673.47;;;18.66;75.97
68075;BME280;54864;52.002;5.468;2023-06-22T03:51:15;101676.03;;;18.68;76.19
68075;BME280;54864;52.002;5.468;2023-06-22T03:52:17;101673.25;;;18.69;76.55
68075;BME280;54864;52.002;5.468;2023-06-22T03:53:17;101678.41;;;18.73;76.60
68075;BME280;54864;52.002;5.468;2023-06-22T03:54:19;101673.91;;;18.73;76.83
68075;BME280;54864;52.002;5.468;2023-06-22T03:55:20;101673.16;;;18.71;76.67
68075;BME280;54864;52.002;5.468;2023-06-22T03:56:22;101671.25;;;18.73;76.58
68075;BME280;54864;52.002;5.468;2023-06-22T03:57:23;101672.66;;;18.79;76.57
68075;BME280;54864;52.002;5.468;2023-06-22T03:58:25;101675.53;;;18.76;76.87
68075;BME280;54864;52.002;5.468;2023-06-22T03:59:26;101681.63;;;18.78;76.25
68075;BME280;54864;52.002;5.468;2023-06-22T04:00:28;101685.03;;;18.80;76.42
68075;BME280;54864;52.002;5.468;2023-06-22T04:01:29;101680.25;;;18.85;76.44
68075;BME280;54864;52.002;5.468;2023-06-22T04:02:31;101681.50;;;18.79;76.53
68075;BME280;54864;52.002;5.468;2023-06-22T04:03:31;101678.53;;;18.84;76.89
68075;BME280;54864;52.002;5.468;2023-06-22T04:04:37;101686.47;;;18.85;76.62
68075;BME280;54864;52.002;5.468;2023-06-22T04:05:39;101681.91;;;18.87;77.05
68075;BME280;54864;52.002;5.468;2023-06-22T04:06:41;101680.47;;;18.82;76.85
68075;BME280;54864;52.002;5.468;2023-06-22T04:07:42;101685.44;;;18.88;76.58
68075;BME280;54864;52.002;5.468;2023-06-22T04:08:50;101684.47;;;18.89;76.67
68075;BME280;54864;52.002;5.468;2023-06-22T04:09:51;101681.28;;;18.96;76.73
68075;BME280;54864;52.002;5.468;2023-06-22T04:10:53;101686.31;;;19.01;76.57
68075;BME280;54864;52.002;5.468;2023-06-22T04:11:53;101683.34;;;19.06;75.96
68075;BME280;54864;52.002;5.468;2023-06-22T04:12:55;101685.16;;;19.05;75.52
68075;BME280;54864;52.002;5.468;2023-06-22T04:13:56;101683.78;;;19.12;75.30
68075;BME280;54864;52.002;5.468;2023-06-22T04:14:58;101680.91;;;19.15;75.26
68075;BME280;54864;52.002;5.468;2023-06-22T04:15:59;101679.72;;;19.19;75.48
68075;BME280;54864;52.002;5.468;2023-06-22T04:17:02;101678.66;;;19.22;74.92
68075;BME280;54864;52.002;5.468;2023-06-22T04:18:03;101677.91;;;19.20;75.39
68075;BME280;54864;52.002;5.468;2023-06-22T04:19:05;101679.44;;;19.24;74.88
68075;BME280;54864;52.002;5.468;2023-06-22T04:20:08;101676.53;;;19.27;74.47
68075;BME280;54864;52.002;5.468;2023-06-22T04:21:10;101678.56;;;19.23;74.91
68075;BME280;54864;52.002;5.468;2023-06-22T04:22:12;101672.16;;;19.26;75.09
68075;BME280;54864;52.002;5.468;2023-06-22T04:23:13;101670.13;;;19.29;74.92
68075;BME280;54864;52.002;5.468;2023-06-22T04:24:15;101670.03;;;19.31;74.83
68075;BME280;54864;52.002;5.468;2023-06-22T04:25:17;101668.09;;;19.33;74.89
68075;BME280;54864;52.002;5.468;2023-06-22T04:26:19;101673.44;;;19.33;74.94
68075;BME280;54864;52.002;5.468;2023-06-22T04:27:21;101670.78;;;19.33;74.34
68075;BME280;54864;52.002;5.468;2023-06-22T04:28:23;101664.78;;;19.29;74.51
68075;BME280;54864;52.002;5.468;2023-06-22T04:29:25;101666.06;;;19.37;74.54
68075;BME280;54864;52.002;5.468;2023-06-22T04:30:29;101672.28;;;19.37;74.83
68075;BME280;54864;52.002;5.468;2023-06-22T04:31:32;101659.44;;;19.42;74.42
68075;BME280;54864;52.002;5.468;2023-06-22T04:32:37;101671.53;;;19.48;75.00
68075;BME280;54864;52.002;5.468;2023-06-22T04:33:39;101667.72;;;19.52;74.62
68075;BME280;54864;52.002;5.468;2023-06-22T04:34:41;101669.06;;;19.45;74.36
68075;BME280;54864;52.002;5.468;2023-06-22T04:35:45;101674.22;;;19.48;74.66
68075;BME280;54864;52.002;5.468;2023-06-22T04:36:49;101671.06;;;19.55;73.99
68075;BME280;54864;52.002;5.468;2023-06-22T04:37:52;101666.00;;;19.51;74.27
68075;BME280;54864;52.002;5.468;2023-06-22T04:38:55;101665.41;;;19.60;74.21
68075;BME280;54864;52.002;5.468;2023-06-22T04:39:57;101668.50;;;19.67;74.19
68075;BME280;54864;52.002;5.468;2023-06-22T04:40:58;101669.56;;;19.64;73.58
68075;BME280;54864;52.002;5.468;2023-06-22T04:42:01;101670.31;;;19.66;74.16
68075;BME280;54864;52.002;5.468;2023-06-22T04:43:02;101673.31;;;19.61;73.75
68075;BME280;54864;52.002;5.468;2023-06-22T04:44:06;101670.00;;;19.71;73.77
68075;BME280;54864;52.002;5.468;2023-06-22T04:45:07;101669.69;;;19.62;73.57
68075;BME280;54864;52.002;5.468;2023-06-22T04:46:11;101672.03;;;19.54;74.21
68075;BME280;54864;52.002;5.468;2023-06-22T04:47:11;101671.50;;;19.62;73.93
68075;BME280;54864;52.002;5.468;2023-06-22T04:48:13;101681.13;;;19.77;74.24
68075;BME280;54864;52.002;5.468;2023-06-22T04:49:16;101668.91;;;19.73;73.59
68075;BME280;54864;52.002;5.468;2023-06-22T04:50:18;101676.72;;;19.76;73.73
68075;BME280;54864;52.002;5.468;2023-06-22T04:51:23;101669.56;;;19.77;73.68
68075;BME280;54864;52.002;5.468;2023-06-22T04:52:31;101670.41;;;19.90;74.10
68075;BME280;54864;52.002;5.468;2023-06-22T04:53:33;101673.81;;;19.92;73.72
68075;BME280;54864;52.002;5.468;2023-06-22T04:54:34;101666.25;;;19.86;73.06
68075;BME280;54864;52.002;5.468;2023-06-22T04:55:36;101673.19;;;19.88;73.56
68075;BME280;54864;52.002;5.468;2023-06-22T04:56:42;101671.81;;;19.83;73.59
68075;BME280;54864;52.002;5.468;2023-06-22T04:57:49;101680.16;;;19.91;73.19
68075;BME280;54864;52.002;5.468;2023-06-22T04:58:51;101674.91;;;19.89;72.89
68075;BME280;54864;52.002;5.468;2023-06-22T04:59:52;101678.75;;;19.98;72.93
68075;BME280;54864;52.002;5.468;2023-06-22T05:00:54;101679.06;;;20.06;73.39
68075;BME280;54864;52.002;5.468;2023-06-22T05:01:58;101670.91;;;20.08;73.11
68075;BME280;54864;52.002;5.468;2023-06-22T05:03:00;101676.16;;;20.09;73.00
68075;BME280;54864;52.002;5.468;2023-06-22T05:04:03;101676.91;;;20.11;72.83
68075;BME280;54864;52.002;5.468;2023-06-22T05:05:07;101671.31;;;20.14;72.56
68075;BME280;54864;52.002;5.468;2023-06-22T05:06:08;101680.22;;;20.15;72.59
68075;BME280;54864;52.002;5.468;2023-06-22T05:07:11;101680.03;;;20.18;72.45
68075;BME280;54864;52.002;5.468;2023-06-22T05:08:13;101682.47;;;20.21;72.86
68075;BME280;54864;52.002;5.468;2023-06-22T05:09:15;101683.13;;;20.12;73.09
68075;BME280;54864;52.002;5.468;2023-06-22T05:10:16;101680.22;;;20.15;73.15
68075;BME280;54864;52.002;5.468;2023-06-22T05:11:18;101682.16;;;20.25;73.16
68075;BME280;54864;52.002;5.468;2023-06-22T05:12:28;101684.41;;;20.19;73.06
68075;BME280;54864;52.002;5.468;2023-06-22T05:13:30;101677.03;;;20.22;72.86
68075;BME280;54864;52.002;5.468;2023-06-22T05:14:31;101677.66;;;20.26;72.79
68075;BME280;54864;52.002;5.468;2023-06-22T05:15:33;101678.84;;;20.22;73.17
68075;BME280;54864;52.002;5.468;2023-06-22T05:16:37;101678.63;;;20.25;73.23
68075;BME280;54864;52.002;5.468;2023-06-22T05:17:39;101679.81;;;20.21;73.26
68075;BME280;54864;52.002;5.468;2023-06-22T05:18:43;101677.44;;;20.29;73.39
68075;BME280;54864;52.002;5.468;2023-06-22T05:19:44;101684.50;;;20.30;72.76
68075;BME280;54864;52.002;5.468;2023-06-22T05:20:51;101675.16;;;20.36;73.20
68075;BME280;54864;52.002;5.468;2023-06-22T05:21:52;101679.03;;;20.44;72.59
68075;BME280;54864;52.002;5.468;2023-06-22T05:22:55;101684.03;;;20.49;72.13
68075;BME280;54864;52.002;5.468;2023-06-22T05:23:57;101669.50;;;20.40;72.29
68075;BME280;54864;52.002;5.468;2023-06-22T05:25:00;101676.41;;;20.55;72.06
68075;BME280;54864;52.002;5.468;2023-06-22T05:26:01;101675.44;;;20.56;71.74
68075;BME280;54864;52.002;5.468;2023-06-22T05:27:03;101674.75;;;20.42;72.45
68075;BME280;54864;52.002;5.468;2023-06-22T05:28:04;101674.00;;;20.40;72.38
68075;BME280;54864;52.002;5.468;2023-06-22T05:29:11;101675.91;;;20.38;72.22